Time;durP1;ratioP1;P1;durP2;ratioP2;P2;SDS_P1;SDS_P2;PMS_P1;PMS_P2;Temp;Humidity;BMP_temperature;BMP_pressure;BME280_temperature;BME280_humidity;BME280_pressure;Samples;Min_cycle;Max_cycle;Signal;HPM_P1;HPM_P2
2022/01/17 00:07:09;;;;;;;1999.90;999.90;;;;;;;7.53;80.03;101513.47;15587237;28;20116;-64
2022/01/17 00:14:45;;;;;;;1999.90;999.90;;;;;;;7.78;79.04;101504.00;15541678;28;20049;-64
2022/01/17 00:22:26;;;;;;;1999.90;999.90;;;;;;;7.36;80.02;101499.19;15549199;28;20052;-64
2022/01/17 00:30:02;;;;;;;1999.90;999.90;;;;;;;7.60;78.63;101498.38;15601339;28;20068;-64
2022/01/17 00:37:35;;;;;;;1999.90;999.90;;;;;;;7.65;78.40;101506.69;15618868;28;20045;-63
2022/01/17 00:45:13;;;;;;;1999.90;999.90;;;;;;;7.63;78.63;101490.31;15600243;28;20051;-64
2022/01/17 00:52:45;;;;;;;1999.90;999.90;;;;;;;7.76;77.94;101492.38;15617693;28;20141;-63
2022/01/17 01:00:19;;;;;;;1999.90;999.90;;;;;;;7.62;77.74;101473.94;15599889;28;20515;-64
2022/01/17 01:07:53;;;;;;;1999.90;999.90;;;;;;;7.72;77.12;101469.09;15558887;28;20048;-64
2022/01/17 01:15:46;;;;;;;1999.90;999.90;;;;;;;7.89;76.04;101437.19;15521394;28;20129;-64
2022/01/17 01:31:36;;;;;;;1999.90;999.90;;;;;;;7.88;74.52;101444.72;15486118;28;20060;-62
2022/01/17 01:39:09;;;;;;;1999.90;999.90;;;;;;;7.96;73.63;101448.78;15536811;28;20064;-63
2022/01/17 01:46:44;;;;;;;;;;;;;;;8.13;72.93;101437.16;15553296;28;20071;-64
2022/01/17 01:54:18;;;;;;;1999.90;999.90;;;;;;;7.94;73.00;101454.66;15536046;28;19922;-64
2022/01/17 02:01:53;;;;;;;1999.90;999.90;;;;;;;8.17;71.83;101435.44;15520247;28;20510;-64
2022/01/17 02:09:25;;;;;;;1999.90;999.90;;;;;;;8.14;71.52;101445.22;15590415;28;20068;-65
2022/01/17 02:17:04;;;;;;;1999.90;999.90;;;;;;;8.13;71.13;101449.13;15581879;28;20041;-65
2022/01/17 02:24:38;;;;;;;1999.90;999.90;;;;;;;8.42;69.98;101434.28;15580757;28;20077;-63
2022/01/17 02:32:11;;;;;;;1999.90;999.90;;;;;;;8.09;69.11;101409.13;15612420;28;20068;-64
2022/01/17 02:39:45;;;;;;;1999.90;999.90;;;;;;;8.19;69.65;101383.16;15613865;28;20048;-64
2022/01/17 02:47:18;;;;;;;1999.90;999.90;;;;;;;7.91;68.54;101371.03;15595477;28;20096;-64
2022/01/17 02:54:52;;;;;;;1999.90;999.90;;;;;;;7.95;66.02;101377.66;15599122;28;20045;-64
2022/01/17 03:02:25;;;;;;;1999.90;999.90;;;;;;;8.06;63.19;101346.66;15606422;28;20128;-64
2022/01/17 03:10:02;;;;;;;1999.90;999.90;;;;;;;7.77;63.39;101332.06;15606513;28;20049;-64
2022/01/17 03:17:35;;;;;;;1999.90;999.90;;;;;;;7.54;64.28;101322.66;15622527;28;20053;-64
2022/01/17 03:25:10;;;;;;;1999.90;999.90;;;;;;;7.68;64.02;101325.50;15658901;28;20052;-65
2022/01/17 03:32:43;;;;;;;1999.90;999.90;;;;;;;7.80;64.27;101337.00;15677138;28;20079;-65
2022/01/17 03:40:17;;;;;;;1999.90;999.90;;;;;;;7.86;63.97;101343.34;15618298;28;20038;-64
2022/01/17 03:47:50;;;;;;;1999.90;999.90;;;;;;;7.79;64.12;101338.97;15585466;28;20100;-63
2022/01/17 03:55:24;;;;;;;1999.90;999.90;;;;;;;7.49;64.67;101301.31;15560964;28;20046;-63
2022/01/17 04:02:58;;;;;;;1999.90;999.90;;;;;;;7.49;65.16;101308.81;15573660;28;20469;-64
2022/01/17 04:10:32;;;;;;;1999.90;999.90;;;;;;;7.63;65.00;101331.16;15611120;28;20037;-64
2022/01/17 04:18:06;;;;;;;1999.90;999.90;;;;;;;7.89;64.73;101346.31;15598659;28;20096;-65
2022/01/17 04:25:42;;;;;;;1999.90;999.90;;;;;;;7.75;65.51;101332.38;15564154;28;20069;-64
2022/01/17 04:33:15;;;;;;;1999.90;999.90;;;;;;;7.90;65.64;101324.91;15529255;28;20066;-63
2022/01/17 04:41:01;;;;;;;1999.90;999.90;;;;;;;7.61;67.11;101323.13;15551525;28;20400;-64
2022/01/17 04:48:35;;;;;;;1999.90;999.90;;;;;;;7.87;66.49;101290.22;15560314;28;20046;-64
2022/01/17 04:56:09;;;;;;;1999.90;999.90;;;;;;;7.78;66.95;101328.16;15584842;28;20123;-64
2022/01/17 05:03:41;;;;;;;1999.90;999.90;;;;;;;7.55;68.26;101334.59;15621216;28;20057;-64
2022/01/17 05:11:15;;;;;;;1999.90;999.90;;;;;;;7.62;68.41;101290.63;15619761;28;20055;-63
2022/01/17 05:26:37;;;;;;;1999.90;999.90;;;;;;;7.68;69.06;101292.19;15582329;28;20052;-64
2022/01/17 05:34:09;;;;;;;1999.90;999.90;;;;;;;7.64;69.44;101266.97;15575138;23;20463;-54
2022/01/17 05:41:43;;;;;;;1999.90;999.90;;;;;;;7.53;69.75;101257.94;15524791;28;20063;-55
2022/01/17 05:49:16;;;;;;;1999.90;999.90;;;;;;;7.68;69.42;101278.28;15600203;28;20637;-58
2022/01/17 05:57:02;;;;;;;1999.90;999.90;;;;;;;7.76;68.98;101241.50;15584003;28;20045;-59
2022/01/17 06:04:35;;;;;;;1999.90;999.90;;;;;;;7.62;69.39;101263.66;15612475;28;20060;-55
2022/01/17 06:12:10;;;;;;;1999.90;999.90;;;;;;;7.75;69.30;101234.31;15644734;28;20045;-54
2022/01/17 06:19:43;;;;;;;1999.90;999.90;;;;;;;7.68;69.48;101245.78;15601157;28;20108;-57
2022/01/17 06:27:17;;;;;;;1999.90;999.90;;;;;;;7.62;70.58;101260.06;15646707;28;20076;-52
2022/01/17 06:34:50;;;;;;;1999.90;999.90;;;;;;;7.92;69.58;101248.50;15613896;28;20059;-59
2022/01/17 06:42:24;;;;;;;1999.90;999.90;;;;;;;7.83;70.92;101230.84;15615940;28;20478;-58
2022/01/17 06:49:57;;;;;;;1999.90;999.90;;;;;;;7.57;71.88;101201.81;15585889;28;20436;-58
2022/01/17 06:57:31;;;;;;;1999.90;999.90;;;;;;;7.86;70.98;101235.78;15626999;28;20048;-54
2022/01/17 07:05:04;;;;;;;1999.90;999.90;;;;;;;7.63;72.46;101247.81;15679711;28;20049;-58
2022/01/17 07:12:38;;;;;;;1999.90;999.90;;;;;;;7.77;71.90;101243.16;15661643;28;20101;-57
2022/01/17 07:20:12;;;;;;;1999.90;999.90;;;;;;;7.80;72.45;101243.38;15618709;28;20063;-53
2022/01/17 07:27:46;;;;;;;;;;;;;;;8.05;72.39;101194.91;15590034;28;20041;-56
2022/01/17 07:35:19;;;;;;;1999.90;999.90;;;;;;;7.42;74.32;101178.69;15616909;28;20369;-53
2022/01/17 07:42:53;;;;;;;1999.90;999.90;;;;;;;7.64;74.39;101180.03;15580780;28;20564;-56
2022/01/17 07:50:26;;;;;;;1999.90;999.90;;;;;;;8.04;73.76;101204.38;15598167;28;20104;-53
2022/01/17 07:58:00;;;;;;;1999.90;999.90;;;;;;;7.53;75.20;101193.25;15597725;28;20091;-56
2022/01/17 08:05:33;;;;;;;1999.90;999.90;;;;;;;7.72;75.03;101196.03;15580979;28;20073;-56
2022/01/17 08:13:09;;;;;;;1999.90;999.90;;;;;;;7.83;74.82;101183.63;15614918;28;20045;-55
2022/01/17 08:20:43;;;;;;;1999.90;999.90;;;;;;;7.66;75.11;101177.78;15614591;28;20530;-57
2022/01/17 08:28:17;;;;;;;1999.90;999.90;;;;;;;7.75;76.05;101154.56;15613953;28;20104;-57
2022/01/17 08:35:52;;;;;;;1999.90;999.90;;;;;;;7.66;76.61;101130.56;15579009;28;20060;-58
2022/01/17 08:43:26;;;;;;;1999.90;999.90;;;;;;;7.89;76.27;101140.69;15612729;28;20049;-55
2022/01/17 08:50:59;;;;;;;1999.90;999.90;;;;;;;7.89;76.95;101165.72;15595345;28;20034;-57
2022/01/17 08:58:34;;;;;;;1999.90;999.90;;;;;;;7.95;76.70;101185.91;15594999;28;20128;-58
2022/01/17 09:06:07;;;;;;;1999.90;999.90;;;;;;;8.15;75.92;101162.50;15612144;28;20132;-55
2022/01/17 09:13:42;;;;;;;1999.90;999.90;;;;;;;8.16;78.37;101137.16;15593459;28;20056;-55
2022/01/17 09:21:15;;;;;;;1999.90;999.90;;;;;;;8.19;79.08;101152.41;15577074;28;20135;-54
2022/01/17 09:28:49;;;;;;;1999.90;999.90;;;;;;;8.13;78.96;101167.50;15593752;28;20056;-57
2022/01/17 09:36:25;;;;;;;1999.90;999.90;;;;;;;8.12;79.25;101175.03;15577610;28;20064;-57
2022/01/17 09:44:01;;;;;;;1999.90;999.90;;;;;;;8.10;78.10;101197.56;15580614;28;20056;-59
2022/01/17 09:51:41;;;;;;;1999.90;999.90;;;;;;;8.33;77.76;101194.94;15610936;28;20077;-59
2022/01/17 09:59:15;;;;;;;1999.90;999.90;;;;;;;8.42;78.51;101231.25;15592994;28;20048;-58
2022/01/17 10:06:56;;;;;;;1999.90;999.90;;;;;;;8.04;80.97;101248.84;15591747;28;20115;-57
2022/01/17 10:14:35;;;;;;;1999.90;999.90;;;;;;;8.40;81.23;101306.66;15610182;28;20048;-56
2022/01/17 10:22:15;;;;;;;1999.90;999.90;;;;;;;7.35;80.04;101403.13;15591458;28;20525;-52
2022/01/17 10:30:16;;;;;;;1999.90;999.90;;;;;;;7.10;78.66;101406.19;15591711;28;20175;-58
2022/01/17 10:38:06;;;;;;;1999.90;999.90;;;;;;;7.10;79.13;101392.31;15591164;28;20445;-57
2022/01/17 10:45:44;;;;;;;1999.90;999.90;;;;;;;7.56;78.22;101419.56;15608541;28;20045;-56
2022/01/17 10:53:18;;;;;;;1999.90;999.90;;;;;;;8.00;76.59;101430.38;15590874;28;20057;-56
2022/01/17 11:00:54;;;;;;;1999.90;999.90;;;;;;;8.66;74.74;101441.41;15591202;28;20125;-56
2022/01/17 11:08:30;;;;;;;1999.90;999.90;;;;;;;8.96;73.01;101436.44;15592541;28;20144;-57
2022/01/17 11:16:07;;;;;;;1999.90;999.90;;;;;;;8.60;71.76;101464.88;15599369;28;20470;-52
2022/01/17 11:23:43;;;;;;;1999.90;999.90;;;;;;;9.75;68.22;101498.50;15588973;28;20045;-55
2022/01/17 11:31:17;;;;;;;1999.90;999.90;;;;;;;9.95;67.33;101527.13;15604377;22;20077;-62
2022/01/17 11:38:54;;;;;;;1999.90;999.90;;;;;;;12.30;59.35;101540.66;15495996;28;20431;-63
2022/01/17 11:46:30;;;;;;;1999.90;999.90;;;;;;;10.91;61.66;101544.56;15494025;28;20137;-63
2022/01/17 11:54:10;;;;;;;1999.90;999.90;;;;;;;11.00;62.04;101555.81;15492314;28;20081;-59
2022/01/17 12:02:21;;;;;;;1999.90;999.90;;;;;;;7.61;68.00;101608.38;15492857;28;20034;-61
2022/01/17 12:10:07;;;;;;;1999.90;999.90;;;;;;;6.88;72.48;101614.78;15447877;28;20039;-62
2022/01/17 12:17:44;;;;;;;1999.90;999.90;;;;;;;6.04;71.57;101664.44;15494271;28;20549;-61
2022/01/17 12:25:34;;;;;;;1999.90;999.90;;;;;;;6.25;71.66;101701.25;15518317;28;20345;-60
2022/01/17 12:33:14;;;;;;;1999.90;999.90;;;;;;;6.43;70.79;101701.75;15545608;28;20515;-63
2022/01/17 12:40:46;;;;;;;1999.90;999.90;;;;;;;6.92;68.41;101668.56;15474989;28;20043;-63
2022/01/17 12:48:23;;;;;;;1999.90;999.90;;;;;;;7.22;66.12;101689.78;15490774;28;20077;-62
2022/01/17 12:55:58;;;;;;;1999.90;999.90;;;;;;;6.98;65.05;101714.59;15527551;28;20551;-63
2022/01/17 13:03:40;;;;;;;1999.90;999.90;;;;;;;6.85;65.32;101727.13;15552627;28;20152;-57
2022/01/17 13:11:15;;;;;;;1999.90;999.90;;;;;;;6.86;64.49;101725.19;15551943;28;20050;-62
2022/01/17 13:18:50;;;;;;;1999.90;999.90;;;;;;;6.88;62.87;101709.94;15534815;28;20080;-61
2022/01/17 13:26:28;;;;;;;1999.90;999.90;;;;;;;7.10;61.49;101751.19;15527022;28;20109;-62
2022/01/17 13:34:13;;;;;;;1999.90;999.90;;;;;;;7.19;61.64;101768.91;15489809;28;20053;-60
2022/01/17 13:41:48;;;;;;;1999.90;999.90;;;;;;;8.42;57.00;101776.38;15488579;28;20038;-62
2022/01/17 13:49:23;;;;;;;1999.90;999.90;;;;;;;8.59;55.09;101793.47;15488695;28;20034;-62
2022/01/17 13:56:57;;;;;;;1999.90;999.90;;;;;;;8.25;57.16;101799.88;15506533;28;20046;-60
2022/01/17 14:04:31;;;;;;;1999.90;999.90;;;;;;;8.04;56.18;101781.72;15530740;28;20196;-61
2022/01/17 14:12:12;;;;;;;1999.90;999.90;;;;;;;7.59;58.31;101821.72;15494920;28;20051;-60
2022/01/17 14:19:46;;;;;;;1999.90;999.90;;;;;;;7.22;59.65;101818.31;15470764;28;20058;-61
2022/01/17 14:27:22;;;;;;;1999.90;999.90;;;;;;;6.98;62.20;101806.16;15524944;28;20085;-61
2022/01/17 14:34:59;;;;;;;1999.90;999.90;;;;;;;6.80;61.90;101834.53;15547004;28;20081;-61
2022/01/17 14:42:36;;;;;;;1999.90;999.90;;;;;;;6.51;62.75;101842.63;15548949;28;20471;-61
2022/01/17 14:50:12;;;;;;;1999.90;999.90;;;;;;;6.48;62.71;101862.59;15549057;28;20050;-61
2022/01/17 15:05:38;;;;;;;1999.90;999.90;;;;;;;6.22;64.26;101906.09;15496386;28;20085;-61
2022/01/17 15:13:12;;;;;;;1999.90;999.90;;;;;;;6.18;64.40;101935.47;15498121;28;20046;-61
2022/01/17 15:20:47;;;;;;;1999.90;999.90;;;;;;;6.00;65.28;101958.97;15496095;28;20035;-60
2022/01/17 15:28:19;;;;;;;1999.90;999.90;;;;;;;6.07;64.91;101988.09;15496042;28;20050;-62
2022/01/17 15:35:54;;;;;;;1999.90;999.90;;;;;;;5.85;65.22;102025.38;15508784;28;20043;-60
2022/01/17 15:43:27;;;;;;;1999.90;999.90;;;;;;;6.01;65.33;102041.81;15533216;28;20054;-62
2022/01/17 15:51:01;;;;;;;1999.90;999.90;;;;;;;6.00;65.65;102072.59;15500193;28;20042;-61
2022/01/17 15:58:34;;;;;;;1999.90;999.90;;;;;;;5.98;65.92;102081.16;15523974;28;20423;-63
2022/01/17 16:06:08;;;;;;;1999.90;999.90;;;;;;;5.71;66.44;102120.03;15552574;28;20052;-62
2022/01/17 16:13:41;;;;;;;1999.90;999.90;;;;;;;5.72;66.28;102134.69;15522303;28;20073;-62
2022/01/17 16:21:15;;;;;;;1999.90;999.90;;;;;;;5.63;66.80;102142.69;15475770;28;20116;-62
2022/01/17 16:28:48;;;;;;;1999.90;999.90;;;;;;;5.60;67.66;102165.38;15493077;28;20042;-61
2022/01/17 16:36:22;;;;;;;1999.90;999.90;;;;;;;5.38;68.98;102175.69;15493530;28;20050;-62
2022/01/17 16:43:58;;;;;;;1999.90;999.90;;;;;;;5.29;69.40;102203.00;15494064;28;20363;-62
2022/01/17 16:51:34;;;;;;;1999.90;999.90;;;;;;;5.25;70.26;102224.03;15553608;28;20049;-61
2022/01/17 16:59:06;;;;;;;1999.90;999.90;;;;;;;5.13;69.75;102246.31;15535792;28;20091;-63
2022/01/17 17:06:40;;;;;;;1999.90;999.90;;;;;;;5.15;69.83;102262.66;15514698;28;20082;-62
2022/01/17 17:14:14;;;;;;;1999.90;999.90;;;;;;;4.98;69.15;102272.94;15516124;28;20564;-63
2022/01/17 17:21:51;;;;;;;1999.90;999.90;;;;;;;5.19;67.90;102288.69;15524174;28;20380;-63
2022/01/17 17:29:24;;;;;;;1999.90;999.90;;;;;;;5.15;66.48;102296.69;15522122;28;20488;-63
2022/01/17 17:36:59;;;;;;;1999.90;999.90;;;;;;;5.01;66.89;102312.03;15682676;23;20521;-65
2022/01/17 17:44:34;;;;;;;1999.90;999.90;;;;;;;5.05;66.18;102327.00;15660346;28;20128;-64
2022/01/17 17:52:10;;;;;;;1999.90;999.90;;;;;;;4.99;65.26;102333.56;15652661;28;20435;-65
2022/01/17 17:59:45;;;;;;;1999.90;999.90;;;;;;;5.04;64.87;102338.34;15659880;28;20064;-65
2022/01/17 18:07:22;;;;;;;1999.90;999.90;;;;;;;4.84;65.50;102353.56;15659595;28;20049;-64
2022/01/17 18:14:55;;;;;;;1999.90;999.90;;;;;;;4.95;64.40;102373.06;15643554;28;20037;-65
2022/01/17 18:22:29;;;;;;;1999.90;999.90;;;;;;;4.89;64.28;102375.75;15616001;28;20038;-61
2022/01/17 18:30:02;;;;;;;1999.90;999.90;;;;;;;4.81;64.71;102384.50;15637155;28;20095;-65
2022/01/17 18:37:37;;;;;;;1999.90;999.90;;;;;;;4.75;64.77;102407.63;15629814;28;20040;-64
2022/01/17 18:45:10;;;;;;;1999.90;999.90;;;;;;;4.70;65.10;102423.31;15645702;28;20055;-63
2022/01/17 18:52:51;;;;;;;1999.90;999.90;;;;;;;4.51;65.21;102423.56;15665469;28;20045;-66
2022/01/17 19:00:25;;;;;;;1999.90;999.90;;;;;;;4.34;66.65;102425.47;15679793;28;20042;-64
2022/01/17 19:07:59;;;;;;;;;;;;;;;4.50;65.61;102441.25;15641678;28;20076;-64
2022/01/17 19:15:32;;;;;;;1999.90;999.90;;;;;;;4.29;66.15;102458.56;15668889;28;19941;-65
2022/01/17 19:23:06;;;;;;;1999.90;999.90;;;;;;;4.34;66.80;102467.78;15620019;28;20063;-67
2022/01/17 19:30:39;;;;;;;1999.90;999.90;;;;;;;4.32;66.31;102491.22;15619613;28;20056;-65
2022/01/17 19:38:14;;;;;;;1999.90;999.90;;;;;;;4.26;66.08;102506.03;15643645;28;20037;-64
2022/01/17 19:45:47;;;;;;;1999.90;999.90;;;;;;;4.19;66.59;102506.19;15606856;28;20453;-65
2022/01/17 19:53:23;;;;;;;1999.90;999.90;;;;;;;4.22;67.19;102530.56;15623867;28;20045;-64
2022/01/17 20:00:56;;;;;;;1999.90;999.90;;;;;;;4.08;67.41;102544.94;15610469;28;20052;-61
2022/01/17 20:08:30;;;;;;;1999.90;999.90;;;;;;;4.02;67.16;102541.22;15597572;28;20045;-65
2022/01/17 20:16:09;;;;;;;1999.90;999.90;;;;;;;4.01;67.32;102548.66;15667075;28;20442;-64
2022/01/17 20:23:44;;;;;;;1999.90;999.90;;;;;;;3.99;67.29;102559.13;15627047;28;20054;-65
2022/01/17 20:31:17;;;;;;;1999.90;999.90;;;;;;;3.91;67.57;102569.72;15621140;28;20080;-64
2022/01/17 20:38:51;;;;;;;1999.90;999.90;;;;;;;3.92;67.58;102579.66;15629017;28;20099;-65
2022/01/17 20:46:24;;;;;;;1999.90;999.90;;;;;;;3.60;68.45;102598.56;15637082;28;20075;-64
2022/01/17 20:53:58;;;;;;;1999.90;999.90;;;;;;;3.85;67.72;102618.47;15625031;28;20052;-66
2022/01/17 21:01:33;;;;;;;1999.90;999.90;;;;;;;3.77;67.96;102643.69;15646786;28;20041;-64
2022/01/17 21:09:07;;;;;;;1999.90;999.90;;;;;;;3.68;68.35;102634.09;15630269;28;20042;-66
2022/01/17 21:16:40;;;;;;;1999.90;999.90;;;;;;;3.57;68.62;102629.41;15651874;28;20132;-63
2022/01/17 21:24:15;;;;;;;1999.90;999.90;;;;;;;3.55;68.62;102637.09;15654869;28;20041;-63
2022/01/17 21:31:48;;;;;;;1999.90;999.90;;;;;;;3.50;68.90;102646.09;15628607;28;20506;-64
2022/01/17 21:39:24;;;;;;;1999.90;999.90;;;;;;;3.84;67.99;102672.03;15624590;28;20044;-63
2022/01/17 21:46:57;;;;;;;1999.90;999.90;;;;;;;3.75;68.04;102679.84;15697034;28;20731;-66
2022/01/17 21:54:33;;;;;;;1999.90;999.90;;;;;;;3.48;68.66;102701.53;15686225;28;20140;-66
2022/01/17 22:02:07;;;;;;;1999.90;999.90;;;;;;;3.46;68.91;102695.41;15630220;28;20045;-65
2022/01/17 22:09:41;;;;;;;1999.90;999.90;;;;;;;3.69;67.93;102707.56;15601736;28;20140;-67
2022/01/17 22:17:15;;;;;;;1999.90;999.90;;;;;;;3.67;68.12;102693.16;15619727;28;20041;-64
2022/01/17 22:24:49;;;;;;;1999.90;999.90;;;;;;;3.73;67.87;102687.50;15619115;28;20081;-64
2022/01/17 22:32:26;;;;;;;1999.90;999.90;;;;;;;3.62;68.02;102687.50;15602610;28;20478;-62
2022/01/17 22:40:00;;;;;;;1999.90;999.90;;;;;;;3.62;68.65;102688.34;15637392;28;20504;-65
2022/01/17 22:47:32;;;;;;;1999.90;999.90;;;;;;;3.53;68.73;102687.00;15651021;28;20044;-65
2022/01/17 22:55:07;;;;;;;1999.90;999.90;;;;;;;3.51;68.30;102689.16;15643042;28;20077;-65
2022/01/17 23:02:40;;;;;;;1999.90;999.90;;;;;;;3.40;68.98;102709.31;15615203;28;20405;-65
2022/01/17 23:10:14;;;;;;;1999.90;999.90;;;;;;;3.38;68.68;102709.56;15632258;28;20072;-65
2022/01/17 23:17:47;;;;;;;1999.90;999.90;;;;;;;3.35;69.04;102737.63;15687644;28;20098;-65
2022/01/17 23:25:21;;;;;;;1999.90;999.90;;;;;;;3.15;69.68;102740.69;15650247;28;20049;-65
2022/01/17 23:40:46;;;;;;;1999.90;999.90;;;;;;;3.02;70.45;102738.13;15624581;28;20069;-65
2022/01/17 23:48:18;;;;;;;1999.90;999.90;;;;;;;2.77;71.33;102738.22;15606903;28;20498;-64
2022/01/17 23:55:54;;;;;;;1999.90;999.90;;;;;;;2.97;71.38;102734.38;15624242;28;20111;-65
